createdAt,value
2017-03-23T00:00:49.818Z,6.57
2017-03-23T00:02:02.047Z,6.54
2017-03-23T00:03:14.271Z,6.52
2017-03-23T00:04:26.813Z,6.6
2017-03-23T00:05:39.312Z,6.67
2017-03-23T00:06:51.534Z,6.6
2017-03-23T00:08:04.080Z,6.56
2017-03-23T00:09:16.606Z,6.57
2017-03-23T00:10:28.835Z,6.56
2017-03-23T00:11:40.749Z,6.56
2017-03-23T00:12:53.283Z,6.65
2017-03-23T00:14:05.173Z,6.59
2017-03-23T00:15:17.675Z,6.67
2017-03-23T00:16:29.927Z,6.68
2017-03-23T00:17:42.159Z,6.67
2017-03-23T00:18:54.410Z,6.75
2017-03-23T00:20:06.960Z,6.71
2017-03-23T00:21:19.472Z,6.72
2017-03-23T00:22:31.697Z,6.77
2017-03-23T00:23:43.614Z,6.82
2017-03-23T00:24:55.518Z,6.75
2017-03-23T00:26:07.739Z,6.75
2017-03-23T00:27:19.340Z,6.77
2017-03-23T00:28:31.851Z,6.75
2017-03-23T00:29:43.480Z,6.78
2017-03-23T00:30:55.994Z,6.77
2017-03-23T00:32:08.215Z,6.85
2017-03-23T00:33:20.742Z,6.8
2017-03-23T00:34:33.281Z,6.8
2017-03-23T00:35:45.810Z,6.83
2017-03-23T00:36:58.036Z,6.87
2017-03-23T00:38:09.975Z,6.82
2017-03-23T00:39:22.198Z,6.8
2017-03-23T00:40:34.758Z,6.78
2017-03-23T00:41:47.278Z,6.8
2017-03-23T00:42:59.482Z,6.8
2017-03-23T00:44:12.024Z,6.77
2017-03-23T00:45:24.242Z,6.75
2017-03-23T00:46:36.763Z,6.74
2017-03-23T00:47:48.982Z,6.85
2017-03-23T00:49:01.193Z,6.78
2017-03-23T00:50:13.708Z,6.75
2017-03-23T00:51:26.229Z,6.74
2017-03-23T00:52:38.452Z,6.71
2017-03-23T00:53:50.973Z,6.78
2017-03-23T00:55:03.207Z,6.72
2017-03-23T00:56:15.429Z,6.74
2017-03-23T00:57:27.653Z,6.8
2017-03-23T00:58:39.883Z,6.83
2017-03-23T00:59:52.153Z,6.83
2017-03-23T01:01:04.701Z,6.78
2017-03-23T01:02:17.235Z,6.78
2017-03-23T01:03:29.783Z,6.82
2017-03-23T01:04:42.283Z,6.75
2017-03-23T01:05:54.179Z,6.77
2017-03-23T01:07:06.653Z,6.78
2017-03-23T01:08:19.154Z,6.78
2017-03-23T01:09:31.666Z,6.78
2017-03-23T01:10:43.884Z,6.75
2017-03-23T01:11:55.784Z,6.8
2017-03-23T01:13:08.283Z,6.8
2017-03-23T01:14:20.532Z,6.85
2017-03-23T01:15:33.088Z,6.8
2017-03-23T01:16:44.989Z,6.77
2017-03-23T01:17:57.534Z,6.78
2017-03-23T01:19:09.463Z,6.8
2017-03-23T01:20:21.997Z,6.78
2017-03-23T01:21:34.527Z,6.78
2017-03-23T01:22:47.043Z,6.82
2017-03-23T01:23:59.263Z,6.83
2017-03-23T01:25:11.468Z,6.83
2017-03-23T01:26:23.981Z,6.82
2017-03-23T01:27:36.487Z,6.85
2017-03-23T01:28:48.719Z,6.86
2017-03-23T01:30:01.253Z,6.89
2017-03-23T01:31:13.760Z,6.95
2017-03-23T01:32:26.289Z,6.85
2017-03-23T01:33:38.827Z,6.85
2017-03-23T01:34:51.066Z,6.87
2017-03-23T01:36:03.577Z,6.89
2017-03-23T01:37:16.091Z,6.83
2017-03-23T01:38:28.320Z,6.85
2017-03-23T01:39:41.119Z,6.89
2017-03-23T01:40:53.329Z,6.87
2017-03-23T01:42:05.550Z,6.85
2017-03-23T01:43:17.771Z,6.87
2017-03-23T01:44:30.303Z,6.89
2017-03-23T01:45:42.547Z,6.89
2017-03-23T01:46:54.145Z,6.85
2017-03-23T01:48:06.697Z,6.89
2017-03-23T01:49:19.225Z,6.89
2017-03-23T01:50:31.779Z,6.9
2017-03-23T01:51:43.992Z,6.89
2017-03-23T01:52:55.887Z,6.92
2017-03-23T01:54:08.412Z,6.89
2017-03-23T01:55:20.942Z,6.87
2017-03-23T01:56:32.880Z,6.86
2017-03-23T01:57:45.084Z,6.92
2017-03-23T01:58:57.009Z,6.85
2017-03-23T02:00:09.563Z,6.92
2017-03-23T02:01:22.117Z,6.86
2017-03-23T02:02:34.630Z,6.87
2017-03-23T02:03:47.163Z,6.89
2017-03-23T02:04:59.379Z,6.89
2017-03-23T02:06:11.007Z,6.85
2017-03-23T02:07:23.544Z,6.9
2017-03-23T02:08:35.484Z,6.86
2017-03-23T02:09:48.005Z,6.87
2017-03-23T02:11:00.539Z,6.9
2017-03-23T02:12:12.775Z,6.9
2017-03-23T02:13:25.022Z,6.89
2017-03-23T02:14:37.522Z,6.95
2017-03-23T02:15:49.721Z,6.89
2017-03-23T02:17:01.923Z,6.87
2017-03-23T02:18:14.437Z,6.92
2017-03-23T02:19:26.985Z,6.92
2017-03-23T02:20:39.218Z,6.95
2017-03-23T02:21:51.452Z,6.95
2017-03-23T02:23:03.397Z,6.95
2017-03-23T02:24:15.659Z,6.92
2017-03-23T02:25:27.905Z,6.95
2017-03-23T02:26:40.435Z,7
2017-03-23T02:27:52.355Z,6.92
2017-03-23T02:29:04.877Z,6.92
2017-03-23T02:30:17.415Z,6.92
2017-03-23T02:31:29.933Z,6.97
2017-03-23T02:32:41.539Z,6.9
2017-03-23T02:33:54.060Z,6.9
2017-03-23T02:35:05.988Z,6.93
2017-03-23T02:36:18.248Z,6.95
2017-03-23T02:37:30.174Z,6.92
2017-03-23T02:38:42.696Z,7
2017-03-23T02:39:54.940Z,6.92
2017-03-23T02:41:07.481Z,6.95
2017-03-23T02:42:19.682Z,6.9
2017-03-23T02:43:31.894Z,6.95
2017-03-23T02:44:44.137Z,6.96
2017-03-23T02:45:56.340Z,6.85
2017-03-23T02:47:08.279Z,6.95
2017-03-23T02:48:20.824Z,6.89
2017-03-23T02:49:33.333Z,6.95
2017-03-23T02:50:45.870Z,6.87
2017-03-23T02:51:58.400Z,6.93
2017-03-23T02:53:10.359Z,6.92
2017-03-23T02:54:22.891Z,6.9
2017-03-23T02:55:35.429Z,6.86
2017-03-23T02:56:47.929Z,6.85
2017-03-23T02:58:00.154Z,6.82
2017-03-23T02:59:12.687Z,6.87
2017-03-23T03:00:24.937Z,6.83
2017-03-23T03:01:37.480Z,6.87
2017-03-23T03:02:49.693Z,6.89
2017-03-23T03:04:01.625Z,6.9
2017-03-23T03:05:14.168Z,6.9
2017-03-23T03:06:26.418Z,6.92
2017-03-23T03:07:38.670Z,6.78
2017-03-23T03:08:51.194Z,6.87
2017-03-23T03:10:03.136Z,6.93
2017-03-23T03:11:15.359Z,6.75
2017-03-23T03:12:27.880Z,6.85
2017-03-23T03:13:40.122Z,6.77
2017-03-23T03:14:52.010Z,6.85
2017-03-23T03:16:04.232Z,6.82
2017-03-23T03:17:16.784Z,6.82
2017-03-23T03:18:28.998Z,6.82
2017-03-23T03:19:41.526Z,6.8
2017-03-23T03:20:53.118Z,6.82
2017-03-23T03:22:05.368Z,6.8
2017-03-23T03:23:16.670Z,6.77
2017-03-23T03:24:29.178Z,6.77
2017-03-23T03:25:41.084Z,6.77
2017-03-23T03:26:53.302Z,6.74
2017-03-23T03:28:05.544Z,6.71
2017-03-23T03:29:17.790Z,6.83
2017-03-23T03:30:30.300Z,6.78
2017-03-23T03:31:42.510Z,6.75
2017-03-23T03:32:54.709Z,6.82
2017-03-23T03:34:06.930Z,6.82
2017-03-23T03:35:19.445Z,6.75
2017-03-23T03:36:31.695Z,6.74
2017-03-23T03:37:44.244Z,6.72
2017-03-23T03:38:56.774Z,6.75
2017-03-23T03:40:08.986Z,6.74
2017-03-23T03:41:21.221Z,6.7
2017-03-23T03:42:33.777Z,6.77
2017-03-23T03:43:46.291Z,6.75
2017-03-23T03:44:58.484Z,6.77
2017-03-23T03:46:11.021Z,6.71
2017-03-23T03:47:23.578Z,6.72
2017-03-23T03:48:36.108Z,6.71
2017-03-23T03:49:48.642Z,6.68
2017-03-23T03:51:01.174Z,6.71
2017-03-23T03:52:13.108Z,6.7
2017-03-23T03:53:25.663Z,6.72
2017-03-23T03:54:38.184Z,6.67
2017-03-23T03:55:50.407Z,6.56
2017-03-23T03:57:02.345Z,6.65
2017-03-23T03:58:14.541Z,6.56
2017-03-23T03:59:26.759Z,6.62
2017-03-23T04:00:39.008Z,6.57
2017-03-23T04:01:51.287Z,6.65
2017-03-23T04:03:03.504Z,6.59
2017-03-23T04:04:15.721Z,6.54
2017-03-23T04:05:28.252Z,6.57
2017-03-23T04:06:40.192Z,6.59
2017-03-23T04:07:52.418Z,6.56
2017-03-23T04:09:04.935Z,6.47
2017-03-23T04:10:17.134Z,6.49
2017-03-23T04:11:29.898Z,6.54
2017-03-23T04:12:41.846Z,6.52
2017-03-23T04:13:53.790Z,6.52
2017-03-23T04:15:06.007Z,6.54
2017-03-23T04:16:18.210Z,6.47
2017-03-23T04:17:30.751Z,6.46
2017-03-23T04:18:42.957Z,6.52
2017-03-23T04:19:54.869Z,6.49
2017-03-23T04:21:07.387Z,6.52
2017-03-23T04:22:19.595Z,6.52
2017-03-23T04:23:31.778Z,6.53
2017-03-23T04:24:44.049Z,6.47
2017-03-23T04:25:56.274Z,6.44
2017-03-23T04:27:08.795Z,6.46
2017-03-23T04:28:21.037Z,6.56
2017-03-23T04:29:32.961Z,6.44
2017-03-23T04:30:45.178Z,6.49
2017-03-23T04:31:57.100Z,6.47
2017-03-23T04:33:09.873Z,6.56
2017-03-23T04:34:22.099Z,6.52
2017-03-23T04:35:34.623Z,6.49
2017-03-23T04:36:46.837Z,6.49
2017-03-23T04:37:58.736Z,6.47
2017-03-23T04:39:11.260Z,6.49
2017-03-23T04:40:23.481Z,6.46
2017-03-23T04:41:36.029Z,6.43
2017-03-23T04:42:48.263Z,6.52
2017-03-23T04:44:00.140Z,6.54
2017-03-23T04:45:12.108Z,6.57
2017-03-23T04:46:24.613Z,6.54
2017-03-23T04:47:36.847Z,6.57
2017-03-23T04:48:48.750Z,6.53
2017-03-23T04:50:01.288Z,6.52
2017-03-23T04:51:13.837Z,6.59
2017-03-23T04:52:26.056Z,6.52
2017-03-23T04:53:38.576Z,6.52
2017-03-23T04:54:50.804Z,6.52
2017-03-23T04:56:03.345Z,6.68
2017-03-23T04:57:15.564Z,6.49
2017-03-23T04:58:27.784Z,6.46
2017-03-23T04:59:40.308Z,6.54
2017-03-23T05:00:52.551Z,6.49
2017-03-23T05:02:05.051Z,6.53
2017-03-23T05:03:17.272Z,6.52
2017-03-23T05:04:29.824Z,6.5
2017-03-23T05:05:42.042Z,6.53
2017-03-23T05:06:54.565Z,6.46
2017-03-23T05:08:06.762Z,6.47
2017-03-23T05:09:18.983Z,6.43
2017-03-23T05:10:31.501Z,6.49
2017-03-23T05:11:44.000Z,6.52
2017-03-23T05:12:55.911Z,6.54
2017-03-23T05:14:08.136Z,6.6
2017-03-23T05:15:20.386Z,6.6
2017-03-23T05:16:32.535Z,6.62
2017-03-23T05:17:44.461Z,6.53
2017-03-23T05:18:56.402Z,6.62
2017-03-23T05:20:08.649Z,6.62
2017-03-23T05:21:20.893Z,6.64
2017-03-23T05:22:33.411Z,6.57
2017-03-23T05:23:45.927Z,6.6
2017-03-23T05:24:57.244Z,6.59
2017-03-23T05:26:08.849Z,6.64
2017-03-23T05:27:21.095Z,6.56
2017-03-23T05:28:33.592Z,6.59
2017-03-23T05:29:45.207Z,6.64
2017-03-23T05:30:57.107Z,6.62
2017-03-23T05:32:09.603Z,6.68
2017-03-23T05:33:22.129Z,6.59
2017-03-23T05:34:34.063Z,6.65
2017-03-23T05:35:46.594Z,6.65
2017-03-23T05:36:58.533Z,6.68
2017-03-23T05:38:11.357Z,6.72
2017-03-23T05:39:23.882Z,6.68
2017-03-23T05:40:36.079Z,6.72
2017-03-23T05:41:48.313Z,6.68
2017-03-23T05:43:00.220Z,6.68
2017-03-23T05:44:12.713Z,6.75
2017-03-23T05:45:24.925Z,6.82
2017-03-23T05:46:37.476Z,6.7
2017-03-23T05:47:50.019Z,6.7
2017-03-23T05:49:01.954Z,6.77
2017-03-23T05:50:14.170Z,6.78
2017-03-23T05:51:26.742Z,6.74
2017-03-23T05:52:39.264Z,6.77
2017-03-23T05:53:51.476Z,6.78
2017-03-23T05:55:04.019Z,6.77
2017-03-23T05:56:16.520Z,6.82
2017-03-23T05:57:28.467Z,6.87
2017-03-23T05:58:40.991Z,6.85
2017-03-23T05:59:53.563Z,6.87
2017-03-23T06:01:06.100Z,6.87
2017-03-23T06:02:17.721Z,6.92
2017-03-23T06:03:30.223Z,6.86
2017-03-23T06:04:42.759Z,6.9
2017-03-23T06:05:54.988Z,6.89
2017-03-23T06:07:06.913Z,6.95
2017-03-23T06:08:19.435Z,6.9
2017-03-23T06:09:31.952Z,6.92
2017-03-23T06:10:44.447Z,6.93
2017-03-23T06:11:56.065Z,6.92
2017-03-23T06:13:08.610Z,6.96
2017-03-23T06:14:21.153Z,6.9
2017-03-23T06:15:33.698Z,6.9
2017-03-23T06:16:46.244Z,6.92
2017-03-23T06:17:58.767Z,6.87
2017-03-23T06:19:11.287Z,6.95
2017-03-23T06:20:23.539Z,6.95
2017-03-23T06:21:36.343Z,6.95
2017-03-23T06:22:48.260Z,7
2017-03-23T06:24:00.802Z,7.01
2017-03-23T06:25:13.024Z,6.93
2017-03-23T06:26:25.548Z,6.92
2017-03-23T06:27:38.068Z,6.92
2017-03-23T06:28:50.307Z,7.01
2017-03-23T06:30:01.952Z,6.93
2017-03-23T06:31:14.179Z,7
2017-03-23T06:32:26.399Z,6.96
2017-03-23T06:33:38.948Z,6.92
2017-03-23T06:34:51.161Z,6.85
2017-03-23T06:36:03.682Z,6.86
2017-03-23T06:37:15.635Z,6.82
2017-03-23T06:38:28.153Z,6.85
2017-03-23T06:39:40.674Z,6.86
2017-03-23T06:40:52.904Z,6.85
2017-03-23T06:42:05.121Z,6.83
2017-03-23T06:43:17.929Z,6.86
2017-03-23T06:44:30.138Z,6.87
2017-03-23T06:45:42.649Z,6.8
2017-03-23T06:46:54.555Z,6.77
2017-03-23T06:48:07.099Z,6.74
2017-03-23T06:49:19.009Z,6.71
2017-03-23T06:50:31.531Z,6.75
2017-03-23T06:51:44.038Z,6.68
2017-03-23T06:52:56.304Z,6.62
2017-03-23T06:54:08.821Z,6.6
2017-03-23T06:55:21.101Z,6.52
2017-03-23T06:56:33.638Z,6.47
2017-03-23T06:57:46.179Z,6.54
2017-03-23T06:58:58.109Z,6.52
2017-03-23T07:00:10.651Z,6.49
2017-03-23T07:01:23.178Z,6.5
2017-03-23T07:02:35.393Z,6.47
2017-03-23T07:03:47.293Z,6.36
2017-03-23T07:04:59.534Z,6.32
2017-03-23T07:06:12.056Z,6.31
2017-03-23T07:07:24.601Z,6.34
2017-03-23T07:08:37.155Z,6.32
2017-03-23T07:09:49.697Z,6.25
2017-03-23T07:11:02.235Z,6.29
2017-03-23T07:12:14.438Z,6.29
2017-03-23T07:13:26.389Z,6.16
2017-03-23T07:14:38.922Z,6.28
2017-03-23T07:15:51.426Z,6.31
2017-03-23T07:17:03.603Z,6.16
2017-03-23T07:18:16.110Z,6.16
2017-03-23T07:19:28.318Z,6.28
2017-03-23T07:20:40.853Z,6.15
2017-03-23T07:21:52.799Z,6.13
2017-03-23T07:23:05.327Z,6.28
2017-03-23T07:24:17.854Z,6.25
2017-03-23T07:25:30.361Z,6.16
2017-03-23T07:26:42.239Z,6.19
2017-03-23T07:27:54.535Z,6.22
2017-03-23T07:29:07.085Z,6.2
2017-03-23T07:30:19.678Z,6.17
2017-03-23T07:31:32.216Z,6.19
2017-03-23T07:32:43.843Z,6.19
2017-03-23T07:33:56.393Z,6.22
2017-03-23T07:35:08.986Z,6.16
2017-03-23T07:36:21.202Z,6.25
2017-03-23T07:37:33.154Z,6.34
2017-03-23T07:38:45.057Z,6.32
2017-03-23T07:39:56.990Z,6.32
2017-03-23T07:41:09.535Z,6.29
2017-03-23T07:42:21.464Z,6.35
2017-03-23T07:43:33.664Z,6.39
2017-03-23T07:44:45.981Z,6.46
2017-03-23T07:45:58.524Z,6.43
2017-03-23T07:47:11.048Z,6.5
2017-03-23T07:48:23.237Z,6.53
2017-03-23T07:49:35.462Z,6.47
2017-03-23T07:50:47.983Z,6.53
2017-03-23T07:52:00.221Z,6.5
2017-03-23T07:53:12.477Z,6.57
2017-03-23T07:54:24.696Z,6.56
2017-03-23T07:55:37.214Z,6.71
2017-03-23T07:56:49.729Z,6.64
2017-03-23T07:58:02.283Z,6.74
2017-03-23T07:59:14.479Z,6.75
2017-03-23T08:00:26.693Z,6.74
2017-03-23T08:01:38.624Z,6.78
2017-03-23T08:02:50.547Z,6.72
2017-03-23T08:04:03.088Z,6.78
2017-03-23T08:05:15.634Z,6.72
2017-03-23T08:06:27.535Z,6.77
2017-03-23T08:07:39.467Z,6.75
2017-03-23T08:08:51.975Z,6.75
2017-03-23T08:10:04.461Z,6.85
2017-03-23T08:11:16.714Z,6.75
2017-03-23T08:12:28.641Z,6.75
2017-03-23T08:13:41.155Z,6.77
2017-03-23T08:14:53.401Z,6.78
2017-03-23T08:16:05.907Z,6.82
2017-03-23T08:17:18.119Z,6.89
2017-03-23T08:18:30.319Z,6.82
2017-03-23T08:19:42.531Z,6.83
2017-03-23T08:20:55.049Z,6.8
2017-03-23T08:22:07.560Z,6.87
2017-03-23T08:23:19.473Z,6.89
2017-03-23T08:24:31.713Z,6.83
2017-03-23T08:25:43.983Z,6.87
2017-03-23T08:26:56.202Z,6.92
2017-03-23T08:28:08.431Z,6.87
2017-03-23T08:29:20.659Z,6.89
2017-03-23T08:30:32.892Z,6.85
2017-03-23T08:31:45.420Z,6.86
2017-03-23T08:32:57.670Z,6.93
2017-03-23T08:34:09.911Z,6.89
2017-03-23T08:35:22.428Z,6.85
2017-03-23T08:36:34.654Z,6.87
2017-03-23T08:37:47.202Z,6.85
2017-03-23T08:38:59.740Z,6.87
2017-03-23T08:40:12.257Z,6.86
2017-03-23T08:41:24.489Z,6.86
2017-03-23T08:42:36.426Z,6.8
2017-03-23T08:43:48.953Z,6.87
2017-03-23T08:45:01.199Z,6.9
2017-03-23T08:46:13.438Z,6.96
2017-03-23T08:47:25.663Z,7
2017-03-23T08:48:37.290Z,6.95
2017-03-23T08:49:49.838Z,7.01
2017-03-23T08:51:02.384Z,7.08
2017-03-23T08:52:14.950Z,7.1
2017-03-23T08:53:27.450Z,7.01
2017-03-23T08:54:39.976Z,7.15
2017-03-23T08:55:52.506Z,7.11
2017-03-23T08:57:05.025Z,7.13
2017-03-23T08:58:17.554Z,7.1
2017-03-23T08:59:29.500Z,7.26
2017-03-23T09:00:42.039Z,7.21
2017-03-23T09:01:54.585Z,7.21
2017-03-23T09:03:07.130Z,7.22
2017-03-23T09:04:19.662Z,7.19
2017-03-23T09:05:32.201Z,7.25
2017-03-23T09:06:44.755Z,7.29
2017-03-23T09:07:57.293Z,7.4
2017-03-23T09:09:09.522Z,7.4
2017-03-23T09:10:22.068Z,7.32
2017-03-23T09:11:34.614Z,7.39
2017-03-23T09:12:47.155Z,7.33
2017-03-23T09:13:59.055Z,7.39
2017-03-23T09:15:11.590Z,7.43
2017-03-23T09:16:23.543Z,7.5
2017-03-23T09:17:35.753Z,7.53
2017-03-23T09:18:48.260Z,7.51
2017-03-23T09:20:00.784Z,7.53
2017-03-23T09:21:13.020Z,7.51
2017-03-23T09:22:25.244Z,7.62
2017-03-23T09:23:37.472Z,7.7
2017-03-23T09:24:50.008Z,7.58
2017-03-23T09:26:02.563Z,7.66
2017-03-23T09:27:14.202Z,7.75
2017-03-23T09:28:26.734Z,7.78
2017-03-23T09:29:39.251Z,7.87
2017-03-23T09:30:51.816Z,7.91
2017-03-23T09:32:04.333Z,7.99
2017-03-23T09:33:16.864Z,8.02
2017-03-23T09:34:28.800Z,8.05
2017-03-23T09:35:41.360Z,8.08
2017-03-23T09:36:53.894Z,8.16
2017-03-23T09:38:06.112Z,8.2
2017-03-23T09:39:18.336Z,8.23
2017-03-23T09:40:30.941Z,8.27
2017-03-23T09:41:43.163Z,8.28
2017-03-23T09:42:55.703Z,8.28
2017-03-23T09:44:07.945Z,8.26
2017-03-23T09:45:19.891Z,8.31
2017-03-23T09:46:32.408Z,8.32
2017-03-23T09:47:44.922Z,8.2
2017-03-23T09:48:57.463Z,8.23
2017-03-23T09:50:09.725Z,8.2
2017-03-23T09:51:21.671Z,8.18
2017-03-23T09:52:34.195Z,8.27
2017-03-23T09:53:46.738Z,8.24
2017-03-23T09:54:58.684Z,8.24
2017-03-23T09:56:10.626Z,8.28
2017-03-23T09:57:23.158Z,8.31
2017-03-23T09:58:35.693Z,8.27
2017-03-23T09:59:48.218Z,8.24
2017-03-23T10:01:00.467Z,8.34
2017-03-23T10:02:13.005Z,8.27
2017-03-23T10:03:25.555Z,8.39
2017-03-23T10:04:38.101Z,8.31
2017-03-23T10:05:50.619Z,8.26
2017-03-23T10:07:03.170Z,8.28
2017-03-23T10:08:15.386Z,8.42
2017-03-23T10:09:27.914Z,8.32
2017-03-23T10:10:40.456Z,8.44
2017-03-23T10:11:52.685Z,8.38
2017-03-23T10:13:04.622Z,8.36
2017-03-23T10:14:17.165Z,8.46
2017-03-23T10:15:29.696Z,8.46
2017-03-23T10:16:41.931Z,8.52
2017-03-23T10:17:54.163Z,8.56
2017-03-23T10:19:06.698Z,8.49
2017-03-23T10:20:19.223Z,8.57
2017-03-23T10:21:31.147Z,8.57
2017-03-23T10:22:43.373Z,8.61
2017-03-23T10:23:55.895Z,8.64
2017-03-23T10:25:08.095Z,8.68
2017-03-23T10:26:20.377Z,8.6
2017-03-23T10:27:32.599Z,8.71
2017-03-23T10:28:44.801Z,8.59
2017-03-23T10:29:57.323Z,8.59
2017-03-23T10:31:09.565Z,8.56
2017-03-23T10:32:21.806Z,8.45
2017-03-23T10:33:34.360Z,8.54
2017-03-23T10:34:46.874Z,8.54
2017-03-23T10:35:59.119Z,8.44
2017-03-23T10:37:11.636Z,8.36
2017-03-23T10:38:23.846Z,8.38
2017-03-23T10:39:36.089Z,8.36
2017-03-23T10:40:48.325Z,8.41
2017-03-23T10:42:00.555Z,8.27
2017-03-23T10:43:12.473Z,8.26
2017-03-23T10:44:24.721Z,8.27
2017-03-23T10:45:37.244Z,8.18
2017-03-23T10:46:49.767Z,8.21
2017-03-23T10:48:01.986Z,8.27
2017-03-23T10:49:14.521Z,8.2
2017-03-23T10:50:26.770Z,8.21
2017-03-23T10:51:38.987Z,8.18
2017-03-23T10:52:51.226Z,8.23
2017-03-23T10:54:03.465Z,8.23
2017-03-23T10:55:15.109Z,8.03
2017-03-23T10:56:27.661Z,8.11
2017-03-23T10:57:39.896Z,8.11
2017-03-23T10:58:51.824Z,8.06
2017-03-23T11:00:04.358Z,8.09
2017-03-23T11:01:16.912Z,8.03
2017-03-23T11:02:29.455Z,8.06
2017-03-23T11:03:41.705Z,8.02
2017-03-23T11:04:53.946Z,7.98
2017-03-23T11:06:06.193Z,8.02
2017-03-23T11:07:18.760Z,8.01
2017-03-23T11:08:31.017Z,8.01
2017-03-23T11:09:43.563Z,7.98
2017-03-23T11:10:55.801Z,7.98
2017-03-23T11:12:07.743Z,8.01
2017-03-23T11:13:19.988Z,8.03
2017-03-23T11:14:32.239Z,8.02
2017-03-23T11:15:44.439Z,7.98
2017-03-23T11:16:56.340Z,7.98
2017-03-23T11:18:08.885Z,7.99
2017-03-23T11:19:20.823Z,7.99
2017-03-23T11:20:32.747Z,8.01
2017-03-23T11:21:44.969Z,8.01
2017-03-23T11:22:57.489Z,7.95
2017-03-23T11:24:09.728Z,7.98
2017-03-23T11:25:22.284Z,7.93
2017-03-23T11:26:34.808Z,7.93
2017-03-23T11:27:47.316Z,7.9
2017-03-23T11:28:59.847Z,7.85
2017-03-23T11:30:12.090Z,7.84
2017-03-23T11:31:24.361Z,7.91
2017-03-23T11:32:36.906Z,7.81
2017-03-23T11:33:49.123Z,7.9
2017-03-23T11:35:01.051Z,7.9
2017-03-23T11:36:13.290Z,7.98
2017-03-23T11:37:25.536Z,7.88
2017-03-23T11:38:38.104Z,7.93
2017-03-23T11:39:50.332Z,7.96
2017-03-23T11:41:02.870Z,7.98
2017-03-23T11:42:15.399Z,8.03
2017-03-23T11:43:27.625Z,8.05
2017-03-23T11:44:39.870Z,8.13
2017-03-23T11:45:52.413Z,8.06
2017-03-23T11:47:04.637Z,8.11
2017-03-23T11:48:16.878Z,8.08
2017-03-23T11:49:29.395Z,8.08
2017-03-23T11:50:41.640Z,8.09
2017-03-23T11:51:54.171Z,8.16
2017-03-23T11:53:06.115Z,8.14
2017-03-23T11:54:18.050Z,8.06
2017-03-23T11:55:30.602Z,8.17
2017-03-23T11:56:43.146Z,8.11
2017-03-23T11:57:55.696Z,8.11
2017-03-23T11:59:08.245Z,8.01
2017-03-23T12:00:20.484Z,8.06
2017-03-23T12:01:32.709Z,7.99
2017-03-23T12:02:44.936Z,7.93
2017-03-23T12:03:57.479Z,7.91
2017-03-23T12:05:10.001Z,7.93
2017-03-23T12:06:22.570Z,7.87
2017-03-23T12:07:34.514Z,7.84
2017-03-23T12:08:47.026Z,7.9
2017-03-23T12:09:59.547Z,7.87
2017-03-23T12:11:12.079Z,7.9
2017-03-23T12:12:24.321Z,7.84
2017-03-23T12:13:36.546Z,7.78
2017-03-23T12:14:49.116Z,7.75
2017-03-23T12:16:01.659Z,7.83
2017-03-23T12:17:13.557Z,7.83
2017-03-23T12:18:25.793Z,7.78
2017-03-23T12:19:38.316Z,7.93
2017-03-23T12:20:50.239Z,7.85
2017-03-23T12:22:02.164Z,7.93
2017-03-23T12:23:14.391Z,8.01
2017-03-23T12:24:26.609Z,7.93
2017-03-23T12:25:39.108Z,7.96
2017-03-23T12:26:51.323Z,7.91
2017-03-23T12:28:03.865Z,7.96
2017-03-23T12:29:15.507Z,8.03
2017-03-23T12:30:27.460Z,8.03
2017-03-23T12:31:39.385Z,8.03
2017-03-23T12:32:51.632Z,8.08
2017-03-23T12:34:03.867Z,8.11
2017-03-23T12:35:15.187Z,8.11
2017-03-23T12:36:27.708Z,8.11
2017-03-23T12:37:39.980Z,8.09
2017-03-23T12:38:52.199Z,8.21
2017-03-23T12:40:04.728Z,8.18
2017-03-23T12:41:17.267Z,8.24
2017-03-23T12:42:29.820Z,8.27
2017-03-23T12:43:42.036Z,8.34
2017-03-23T12:44:54.582Z,8.5
2017-03-23T12:46:07.126Z,8.42
2017-03-23T12:47:19.695Z,8.5
2017-03-23T12:48:31.925Z,8.52
2017-03-23T12:49:44.449Z,8.57
2017-03-23T12:50:56.667Z,8.68
2017-03-23T12:52:09.237Z,8.69
2017-03-23T12:53:21.174Z,8.77
2017-03-23T12:54:33.102Z,8.81
2017-03-23T12:55:45.626Z,8.77
2017-03-23T12:56:57.849Z,8.97
2017-03-23T12:58:10.111Z,8.99
2017-03-23T12:59:22.358Z,9.02
2017-03-23T13:00:34.592Z,9.09
2017-03-23T13:01:47.155Z,9.08
2017-03-23T13:02:59.084Z,9.19
2017-03-23T13:04:11.375Z,9.19
2017-03-23T13:05:23.920Z,9.26
2017-03-23T13:06:35.838Z,9.29
2017-03-23T13:07:48.326Z,9.29
2017-03-23T13:09:00.572Z,9.4
2017-03-23T13:10:13.077Z,9.34
2017-03-23T13:11:25.622Z,9.45
2017-03-23T13:12:38.170Z,9.51
2017-03-23T13:13:50.662Z,9.49
2017-03-23T13:15:02.611Z,9.49
2017-03-23T13:16:14.858Z,9.49
2017-03-23T13:17:26.793Z,9.47
2017-03-23T13:18:39.013Z,9.48
2017-03-23T13:19:51.246Z,9.47
2017-03-23T13:21:03.806Z,9.48
2017-03-23T13:22:16.335Z,9.44
2017-03-23T13:23:28.578Z,9.49
2017-03-23T13:24:40.794Z,9.51
2017-03-23T13:25:53.344Z,9.49
2017-03-23T13:27:05.589Z,9.45
2017-03-23T13:28:17.831Z,9.49
2017-03-23T13:29:29.755Z,9.48
2017-03-23T13:30:42.009Z,9.34
2017-03-23T13:31:54.545Z,9.39
2017-03-23T13:33:06.770Z,9.34
2017-03-23T13:34:19.300Z,9.3
2017-03-23T13:35:31.836Z,9.39
2017-03-23T13:36:44.378Z,9.34
2017-03-23T13:37:56.032Z,9.33
2017-03-23T13:39:08.245Z,9.36
2017-03-23T13:40:20.495Z,9.31
2017-03-23T13:41:33.029Z,9.33
2017-03-23T13:42:45.544Z,9.34
2017-03-23T13:43:57.759Z,9.45
2017-03-23T13:45:09.708Z,9.49
2017-03-23T13:46:21.913Z,9.48
2017-03-23T13:47:34.458Z,9.48
2017-03-23T13:48:46.725Z,9.4
2017-03-23T13:49:59.266Z,9.48
2017-03-23T13:51:11.787Z,9.48
2017-03-23T13:52:24.311Z,9.49
2017-03-23T13:53:36.871Z,9.54
2017-03-23T13:54:49.395Z,9.62
2017-03-23T13:56:01.313Z,9.66
2017-03-23T13:57:13.860Z,9.56
2017-03-23T13:58:26.379Z,9.58
2017-03-23T13:59:38.601Z,9.59
2017-03-23T14:00:50.804Z,9.59
2017-03-23T14:02:02.750Z,9.56
2017-03-23T14:03:15.271Z,9.55
2017-03-23T14:04:27.795Z,9.66
2017-03-23T14:05:40.334Z,9.54
2017-03-23T14:06:51.991Z,9.59
2017-03-23T14:08:04.511Z,9.48
2017-03-23T14:09:17.021Z,9.52
2017-03-23T14:10:29.243Z,9.52
2017-03-23T14:11:41.477Z,9.37
2017-03-23T14:12:54.015Z,9.48
2017-03-23T14:14:06.516Z,9.4
2017-03-23T14:15:18.441Z,9.3
2017-03-23T14:16:30.981Z,9.27
2017-03-23T14:17:43.489Z,9.13
2017-03-23T14:18:55.402Z,9.15
2017-03-23T14:20:07.634Z,9.09
2017-03-23T14:21:19.859Z,9.15
2017-03-23T14:22:31.459Z,9.08
2017-03-23T14:23:43.705Z,9.08
2017-03-23T14:24:56.243Z,9.05
2017-03-23T14:26:08.790Z,9.02
2017-03-23T14:27:21.332Z,8.97
2017-03-23T14:28:33.610Z,9
2017-03-23T14:29:46.178Z,8.96
2017-03-23T14:30:58.721Z,8.96
2017-03-23T14:32:10.969Z,8.95
2017-03-23T14:33:23.200Z,8.96
2017-03-23T14:34:35.411Z,8.92
2017-03-23T14:35:48.002Z,8.89
2017-03-23T14:37:00.538Z,8.9
2017-03-23T14:38:12.757Z,8.9
2017-03-23T14:39:24.719Z,8.84
2017-03-23T14:40:36.673Z,8.84
2017-03-23T14:41:48.884Z,8.82
2017-03-23T14:43:01.409Z,8.84
2017-03-23T14:44:13.924Z,8.74
2017-03-23T14:45:26.458Z,8.79
2017-03-23T14:46:39.042Z,8.79
2017-03-23T14:47:51.616Z,8.72
2017-03-23T14:49:04.146Z,8.69
2017-03-23T14:50:16.369Z,8.68
2017-03-23T14:51:28.883Z,8.69
2017-03-23T14:52:41.407Z,8.61
2017-03-23T14:53:53.653Z,8.59
2017-03-23T14:55:05.592Z,8.57
2017-03-23T14:56:18.171Z,8.6
2017-03-23T14:57:30.737Z,8.59
2017-03-23T14:58:43.280Z,8.53
2017-03-23T14:59:55.804Z,8.53
2017-03-23T15:01:08.025Z,8.52
2017-03-23T15:02:19.923Z,8.56
2017-03-23T15:03:31.860Z,8.54
2017-03-23T15:04:43.813Z,8.46
2017-03-23T15:05:56.030Z,8.49
2017-03-23T15:07:08.280Z,8.35
2017-03-23T15:08:20.806Z,8.38
2017-03-23T15:09:32.447Z,8.38
2017-03-23T15:10:44.389Z,8.44
2017-03-23T15:11:56.666Z,8.31
2017-03-23T15:13:08.638Z,8.26
2017-03-23T15:14:21.164Z,8.24
2017-03-23T15:15:33.385Z,8.31
2017-03-23T15:16:45.902Z,8.31
2017-03-23T15:17:57.843Z,8.24
2017-03-23T15:19:10.062Z,8.26
2017-03-23T15:20:22.576Z,8.14
2017-03-23T15:21:34.806Z,8.18
2017-03-23T15:22:47.330Z,8.23
2017-03-23T15:23:59.827Z,8.23
2017-03-23T15:25:12.065Z,8.23
2017-03-23T15:26:24.593Z,8.13
2017-03-23T15:27:36.509Z,8.18
2017-03-23T15:28:48.728Z,8.21
2017-03-23T15:30:01.297Z,8.18
2017-03-23T15:31:13.824Z,8.21
2017-03-23T15:32:26.044Z,8.27
2017-03-23T15:33:38.611Z,8.23
2017-03-23T15:34:51.163Z,8.16
2017-03-23T15:36:03.686Z,8.24
2017-03-23T15:37:16.231Z,8.27
2017-03-23T15:38:28.466Z,8.21
2017-03-23T15:39:40.987Z,8.18
2017-03-23T15:40:53.494Z,8.21
2017-03-23T15:42:06.008Z,8.24
2017-03-23T15:43:18.239Z,8.23
2017-03-23T15:44:30.438Z,8.21
2017-03-23T15:45:42.370Z,8.24
2017-03-23T15:46:54.912Z,8.21
2017-03-23T15:48:07.141Z,8.23
2017-03-23T15:49:19.391Z,8.2
2017-03-23T15:50:31.638Z,8.2
2017-03-23T15:51:43.008Z,8.06
2017-03-23T15:52:55.549Z,8.13
2017-03-23T15:54:07.775Z,8.09
2017-03-23T15:55:20.309Z,8.13
2017-03-23T15:56:32.812Z,8.09
2017-03-23T15:57:45.061Z,8.09
2017-03-23T15:58:57.579Z,8.13
2017-03-23T16:00:10.120Z,8.08
2017-03-23T16:01:22.652Z,8.13
2017-03-23T16:02:34.884Z,8.06
2017-03-23T16:03:46.855Z,8.05
2017-03-23T16:04:59.082Z,8.06
2017-03-23T16:06:11.297Z,8.01